createdAt,value
2022-12-23T00:01:46.000Z,7.40
2022-12-23T00:04:12.704Z,7.50
2022-12-23T00:06:39.237Z,7.50
2022-12-23T00:09:05.755Z,7.50
2022-12-23T00:11:32.289Z,7.50
2022-12-23T00:14:21.423Z,7.50
2022-12-23T00:16:49.449Z,7.50
2022-12-23T00:19:16.026Z,7.60
2022-12-23T00:21:42.539Z,7.60
2022-12-23T00:24:09.041Z,7.60
2022-12-23T00:26:35.581Z,7.60
2022-12-23T00:29:02.126Z,7.60
2022-12-23T00:31:28.764Z,7.70
2022-12-23T00:33:55.319Z,7.70
2022-12-23T00:36:23.459Z,7.60
2022-12-23T00:39:08.670Z,7.60
2022-12-23T00:41:53.745Z,7.60
2022-12-23T00:44:20.409Z,7.70
2022-12-23T00:46:46.934Z,7.70
2022-12-23T00:49:32.692Z,7.70
2022-12-23T00:51:59.607Z,7.80
2022-12-23T00:54:26.176Z,7.80
2022-12-23T00:56:52.966Z,7.70
2022-12-23T00:59:19.492Z,7.70
2022-12-23T01:02:04.984Z,7.70
2022-12-23T01:04:50.308Z,7.70
2022-12-23T01:07:16.848Z,7.70
2022-12-23T01:09:43.334Z,7.70
2022-12-23T01:12:09.839Z,7.70
2022-12-23T01:14:36.449Z,7.70
2022-12-23T01:17:03.007Z,7.70
2022-12-23T01:19:29.603Z,7.70
2022-12-23T01:21:56.114Z,7.80
2022-12-23T01:24:22.809Z,7.90
2022-12-23T01:26:49.300Z,7.80
2022-12-23T01:29:15.960Z,7.90
2022-12-23T01:31:42.507Z,7.90
2022-12-23T01:34:10.367Z,7.90
2022-12-23T01:36:36.996Z,7.90
2022-12-23T01:39:03.541Z,7.80
2022-12-23T01:41:49.969Z,7.80
2022-12-23T01:44:35.075Z,7.80
2022-12-23T01:47:02.085Z,7.80
2022-12-23T01:49:28.578Z,7.90
2022-12-23T01:51:55.112Z,7.90
2022-12-23T01:54:21.700Z,7.90
2022-12-23T01:56:48.429Z,7.80
2022-12-23T01:59:37.902Z,7.80
2022-12-23T02:02:23.036Z,7.70
2022-12-23T02:04:49.974Z,7.80
2022-12-23T02:07:36.079Z,7.80
2022-12-23T02:10:03.138Z,7.70
2022-12-23T02:12:48.895Z,7.70
2022-12-23T02:15:40.093Z,7.80
2022-12-23T02:18:06.727Z,7.70
2022-12-23T02:20:33.217Z,7.60
2022-12-23T02:23:16.765Z,7.60
2022-12-23T02:25:52.096Z,7.60
2022-12-23T02:28:24.609Z,7.50
2022-12-23T02:31:00.898Z,7.60
2022-12-23T02:33:44.495Z,7.60
2022-12-23T02:36:22.100Z,7.60
2022-12-23T02:38:56.515Z,7.60
2022-12-23T02:41:25.696Z,7.50
2022-12-23T02:43:55.194Z,7.60
2022-12-23T02:46:31.868Z,7.70
2022-12-23T02:49:01.404Z,7.80
2022-12-23T02:51:30.753Z,7.70
2022-12-23T02:53:59.426Z,7.70
2022-12-23T02:56:27.022Z,7.70
2022-12-23T02:58:56.194Z,7.70
2022-12-23T03:01:24.440Z,7.70
2022-12-23T03:03:51.447Z,7.70
2022-12-23T03:06:23.346Z,7.70
2022-12-23T03:08:52.238Z,7.70
2022-12-23T03:11:19.061Z,7.60
2022-12-23T03:13:55.588Z,7.60
2022-12-23T03:16:22.171Z,7.60
2022-12-23T03:19:10.932Z,7.70
2022-12-23T03:21:48.452Z,7.60
2022-12-23T03:24:35.637Z,7.60
2022-12-23T03:27:16.244Z,7.60
2022-12-23T03:29:47.202Z,7.70
2022-12-23T03:32:14.440Z,7.70
2022-12-23T03:34:43.656Z,7.70
2022-12-23T03:37:12.045Z,7.70
2022-12-23T03:39:48.022Z,7.70
2022-12-23T03:42:22.522Z,7.60
2022-12-23T03:45:19.013Z,7.60
2022-12-23T03:47:45.282Z,7.70
2022-12-23T03:50:13.380Z,7.70
2022-12-23T03:52:44.127Z,7.80
2022-12-23T03:55:14.774Z,7.80
2022-12-23T03:57:45.153Z,7.70
2022-12-23T04:00:11.861Z,7.70
2022-12-23T04:02:48.024Z,7.70
2022-12-23T04:05:14.609Z,7.70
2022-12-23T04:08:07.233Z,7.70
2022-12-23T04:10:34.431Z,7.70
2022-12-23T04:13:01.026Z,7.70
2022-12-23T04:15:28.024Z,7.60
2022-12-23T04:17:55.285Z,7.70
2022-12-23T04:20:21.939Z,7.70
2022-12-23T04:22:48.446Z,7.60
2022-12-23T04:25:15.646Z,7.70
2022-12-23T04:27:42.490Z,7.60
2022-12-23T04:30:10.017Z,7.50
2022-12-23T04:32:36.549Z,7.50
2022-12-23T04:35:03.121Z,7.60
2022-12-23T04:37:29.658Z,7.60
2022-12-23T04:39:56.213Z,7.50
2022-12-23T04:42:22.864Z,7.50
2022-12-23T04:44:49.433Z,7.50
2022-12-23T04:47:15.963Z,7.50
2022-12-23T04:49:42.535Z,7.50
2022-12-23T04:52:09.336Z,7.50
2022-12-23T04:54:38.144Z,7.40
2022-12-23T04:57:08.817Z,7.40
2022-12-23T04:59:35.337Z,7.40
2022-12-23T05:02:02.279Z,7.40
2022-12-23T05:04:28.962Z,7.40
2022-12-23T05:06:55.553Z,7.40
2022-12-23T05:09:22.166Z,7.50
2022-12-23T05:11:48.660Z,7.50
2022-12-23T05:14:15.146Z,7.50
2022-12-23T05:16:41.842Z,7.60
2022-12-23T05:19:08.395Z,7.60
2022-12-23T05:21:34.905Z,7.70
2022-12-23T05:24:01.435Z,7.70
2022-12-23T05:26:27.975Z,7.70
2022-12-23T05:28:54.676Z,7.70
2022-12-23T05:31:21.371Z,7.80
2022-12-23T05:33:47.934Z,7.80
2022-12-23T05:36:14.472Z,7.90
2022-12-23T05:38:40.996Z,7.90
2022-12-23T05:41:07.773Z,7.80
2022-12-23T05:43:34.320Z,7.80
2022-12-23T05:46:00.862Z,7.80
2022-12-23T05:51:47.111Z,7.80
2022-12-23T05:54:13.780Z,7.80
2022-12-23T05:56:40.580Z,7.70
2022-12-23T05:59:07.593Z,7.80
2022-12-23T06:01:34.166Z,7.80
2022-12-23T06:04:00.799Z,7.80
2022-12-23T06:06:27.584Z,7.70
2022-12-23T06:08:59.403Z,7.70
2022-12-23T06:11:26.558Z,7.70
2022-12-23T06:13:53.121Z,7.70
2022-12-23T06:16:19.710Z,7.80
2022-12-23T06:18:46.274Z,7.80
2022-12-23T06:21:12.894Z,7.70
2022-12-23T06:23:39.415Z,7.70
2022-12-23T06:26:06.042Z,7.70
2022-12-23T06:28:32.555Z,7.70
2022-12-23T06:30:59.233Z,7.80
2022-12-23T06:33:26.107Z,7.80
2022-12-23T06:35:52.671Z,7.80
2022-12-23T06:38:19.383Z,7.80
2022-12-23T06:40:45.903Z,7.80
2022-12-23T06:43:13.453Z,7.90
2022-12-23T06:45:40.153Z,8.00
2022-12-23T06:48:06.820Z,8.00
2022-12-23T06:50:33.433Z,8.00
2022-12-23T06:52:59.924Z,7.90
2022-12-23T06:55:26.624Z,8.00
2022-12-23T06:57:53.225Z,8.00
2022-12-23T07:00:20.141Z,8.00
2022-12-23T07:02:46.824Z,7.90
2022-12-23T07:05:13.459Z,8.00
2022-12-23T07:07:39.972Z,8.00
2022-12-23T07:10:06.916Z,8.00
2022-12-23T07:12:35.156Z,8.00
2022-12-23T07:15:01.703Z,7.90
2022-12-23T07:17:28.226Z,8.00
2022-12-23T07:19:54.746Z,8.00
2022-12-23T07:22:21.320Z,8.10
2022-12-23T07:24:47.874Z,8.00
2022-12-23T07:27:14.430Z,8.10
2022-12-23T07:29:40.928Z,8.10
2022-12-23T07:32:07.569Z,8.20
2022-12-23T07:34:34.245Z,8.20
2022-12-23T07:37:00.741Z,8.00
2022-12-23T07:39:27.279Z,8.10
2022-12-23T07:42:09.336Z,8.20
2022-12-23T07:44:40.276Z,8.20
2022-12-23T07:47:07.208Z,8.30
2022-12-23T07:49:34.134Z,8.30
2022-12-23T07:52:00.652Z,8.40
2022-12-23T07:54:27.182Z,8.40
2022-12-23T07:56:53.670Z,8.40
2022-12-23T07:59:20.171Z,8.30
2022-12-23T08:01:46.870Z,8.40
2022-12-23T08:04:13.543Z,8.30
2022-12-23T08:06:41.450Z,8.20
2022-12-23T08:09:09.388Z,8.20
2022-12-23T08:11:35.944Z,8.20
2022-12-23T08:14:02.445Z,8.20
2022-12-23T08:16:29.037Z,8.20
2022-12-23T08:18:55.621Z,8.30
2022-12-23T08:21:22.186Z,8.20
2022-12-23T08:23:48.743Z,8.30
2022-12-23T08:26:16.888Z,8.40
2022-12-23T08:28:44.198Z,8.40
2022-12-23T08:31:19.149Z,8.40
2022-12-23T08:33:47.017Z,8.40
2022-12-23T08:36:19.197Z,8.40
2022-12-23T08:38:49.350Z,8.40
2022-12-23T08:41:18.126Z,8.50
2022-12-23T08:43:45.013Z,8.50
2022-12-23T08:46:11.758Z,8.50
2022-12-23T08:48:41.488Z,8.50
2022-12-23T08:51:13.271Z,8.50
2022-12-23T08:53:40.342Z,8.50
2022-12-23T08:56:10.070Z,8.50
2022-12-23T08:58:37.316Z,8.60
2022-12-23T09:01:04.697Z,8.70
2022-12-23T09:03:31.532Z,8.80
2022-12-23T09:05:58.500Z,8.70
2022-12-23T09:08:25.347Z,8.80
2022-12-23T09:10:51.858Z,8.90
2022-12-23T09:13:27.796Z,8.90
2022-12-23T09:15:59.548Z,9.00
2022-12-23T09:18:26.231Z,9.10
2022-12-23T09:20:59.940Z,9.20
2022-12-23T09:23:26.853Z,9.20
2022-12-23T09:25:53.615Z,9.20
2022-12-23T09:28:20.428Z,9.20
2022-12-23T09:30:47.095Z,9.10
2022-12-23T09:33:13.604Z,9.00
2022-12-23T09:35:40.181Z,9.00
2022-12-23T09:38:06.987Z,9.00
2022-12-23T09:40:34.668Z,9.00
2022-12-23T09:43:09.842Z,9.00
2022-12-23T09:45:55.658Z,9.00
2022-12-23T09:48:25.476Z,9.00
2022-12-23T09:50:52.106Z,9.10
2022-12-23T09:53:19.941Z,9.10
2022-12-23T09:55:50.675Z,9.10
2022-12-23T09:58:28.098Z,9.00
2022-12-23T10:01:01.607Z,9.00
2022-12-23T10:03:32.279Z,9.00
2022-12-23T10:06:01.771Z,8.90
2022-12-23T10:08:36.514Z,8.90
2022-12-23T10:11:06.077Z,9.00
2022-12-23T10:13:35.712Z,9.00
2022-12-23T10:16:08.138Z,9.10
2022-12-23T10:18:42.140Z,9.20
2022-12-23T10:21:14.713Z,9.30
2022-12-23T10:23:42.792Z,9.20
2022-12-23T10:26:17.094Z,9.30
2022-12-23T10:28:43.597Z,9.30
2022-12-23T10:34:03.249Z,9.50
2022-12-23T10:36:38.021Z,9.50
2022-12-23T10:39:08.842Z,9.50
2022-12-23T10:41:39.252Z,9.50
2022-12-23T10:44:41.137Z,9.50
2022-12-23T10:47:07.713Z,9.50
2022-12-23T10:49:42.698Z,9.60
2022-12-23T10:52:12.625Z,9.60
2022-12-23T10:54:39.404Z,9.50
2022-12-23T10:57:06.989Z,9.60
2022-12-23T10:59:35.302Z,9.50
2022-12-23T11:02:22.347Z,9.60
2022-12-23T11:04:49.310Z,9.80
2022-12-23T11:10:17.756Z,9.80
2022-12-23T11:12:53.609Z,9.80
2022-12-23T11:15:36.671Z,9.90
2022-12-23T11:18:12.703Z,9.90
2022-12-23T11:20:40.659Z,9.90
2022-12-23T11:23:25.220Z,9.90
2022-12-23T11:26:00.173Z,9.90
2022-12-23T11:28:26.800Z,9.80
2022-12-23T11:30:56.506Z,9.80
2022-12-23T11:33:27.956Z,9.90
2022-12-23T11:36:12.831Z,9.90
2022-12-23T11:38:58.156Z,9.80
2022-12-23T11:41:26.583Z,9.70
2022-12-23T11:43:58.260Z,9.60
2022-12-23T11:46:26.833Z,9.60
2022-12-23T11:49:11.845Z,9.50
2022-12-23T11:51:38.421Z,9.50
2022-12-23T11:54:05.160Z,9.50
2022-12-23T11:56:39.096Z,9.60
2022-12-23T11:59:18.369Z,9.50
2022-12-23T12:01:48.804Z,9.40
2022-12-23T12:04:21.439Z,9.50
2022-12-23T12:06:55.811Z,9.40
2022-12-23T12:09:23.680Z,9.40
2022-12-23T12:11:53.130Z,9.50
2022-12-23T12:14:26.744Z,9.60
2022-12-23T12:16:53.437Z,9.70
2022-12-23T12:19:23.919Z,9.60
2022-12-23T12:21:51.648Z,9.60
2022-12-23T12:24:24.364Z,9.60
2022-12-23T12:26:52.847Z,9.50
2022-12-23T12:29:19.556Z,9.50
2022-12-23T12:31:48.250Z,9.40
2022-12-23T12:34:21.940Z,9.40
2022-12-23T12:37:07.952Z,9.40
2022-12-23T12:39:37.193Z,9.40
2022-12-23T12:42:19.436Z,9.40
2022-12-23T12:44:51.465Z,9.40
2022-12-23T12:47:51.918Z,9.40
2022-12-23T12:50:38.315Z,9.30
2022-12-23T12:56:15.389Z,9.30
2022-12-23T12:58:44.177Z,9.30
2022-12-23T13:01:16.872Z,9.30
2022-12-23T13:04:04.261Z,9.30
2022-12-23T13:06:47.428Z,9.30
2022-12-23T13:09:24.034Z,9.30
2022-12-23T13:12:09.406Z,9.40
2022-12-23T13:14:39.109Z,9.60
2022-12-23T13:17:11.746Z,9.50
2022-12-23T13:19:42.258Z,9.50
2022-12-23T13:22:10.993Z,9.50
2022-12-23T13:24:40.286Z,9.50
2022-12-23T13:27:15.805Z,9.40
2022-12-23T13:29:58.279Z,9.30
2022-12-23T13:32:43.741Z,9.30
2022-12-23T13:35:30.319Z,9.30
2022-12-23T13:38:15.769Z,9.20
2022-12-23T13:41:01.024Z,9.20
2022-12-23T13:43:35.790Z,9.20
2022-12-23T13:46:07.235Z,9.20
2022-12-23T13:48:41.746Z,9.20
2022-12-23T13:51:23.753Z,9.10
2022-12-23T13:53:53.287Z,9.10
2022-12-23T13:56:29.882Z,9.00
2022-12-23T13:58:57.049Z,8.90
2022-12-23T14:01:34.364Z,8.90
2022-12-23T14:04:19.797Z,8.80
2022-12-23T14:06:47.966Z,8.70
2022-12-23T14:09:16.078Z,8.70
2022-12-23T14:11:43.228Z,8.60
2022-12-23T14:14:18.017Z,8.50
2022-12-23T14:16:59.908Z,8.40
2022-12-23T14:19:45.196Z,8.40
2022-12-23T14:22:30.685Z,8.30
2022-12-23T14:25:15.675Z,8.20
2022-12-23T14:27:59.281Z,8.20
2022-12-23T14:30:41.187Z,8.10
2022-12-23T14:33:34.663Z,8.00
2022-12-23T14:36:15.091Z,8.00
2022-12-23T14:38:41.798Z,7.90
2022-12-23T14:41:27.161Z,7.80
2022-12-23T14:43:55.752Z,7.80
2022-12-23T14:46:34.582Z,7.80
2022-12-23T14:49:29.707Z,7.70
2022-12-23T14:51:50.935Z,7.70
2022-12-23T14:54:18.637Z,7.60
2022-12-23T14:56:50.954Z,7.70
2022-12-23T14:59:36.392Z,7.60
2022-12-23T15:02:13.629Z,7.60
2022-12-23T15:04:43.708Z,7.60
2022-12-23T15:07:16.544Z,7.60
2022-12-23T15:10:00.761Z,7.60
2022-12-23T15:12:38.404Z,7.60
2022-12-23T15:15:06.805Z,7.60
2022-12-23T15:17:34.856Z,7.60
2022-12-23T15:20:10.812Z,7.60
2022-12-23T15:22:37.599Z,7.60
2022-12-23T15:25:04.543Z,7.60
2022-12-23T15:27:32.733Z,7.50
2022-12-23T15:29:59.748Z,7.50
2022-12-23T15:32:27.159Z,7.50
2022-12-23T15:34:57.851Z,7.50
2022-12-23T15:37:28.464Z,7.50
2022-12-23T15:40:03.459Z,7.40
2022-12-23T15:42:35.421Z,7.50
2022-12-23T15:45:22.030Z,7.50
2022-12-23T15:47:48.843Z,7.50
2022-12-23T15:50:16.290Z,7.50
2022-12-23T15:52:44.047Z,7.50
2022-12-23T15:55:12.334Z,7.50
2022-12-23T15:57:49.579Z,7.50
2022-12-23T16:00:21.092Z,7.50
2022-12-23T16:03:06.670Z,7.50
2022-12-23T16:05:36.493Z,7.50
2022-12-23T16:08:23.084Z,7.50
2022-12-23T16:11:02.482Z,7.50
2022-12-23T16:13:29.005Z,7.50
2022-12-23T16:16:15.615Z,7.50
2022-12-23T16:18:47.363Z,7.60
2022-12-23T16:21:14.307Z,7.60
2022-12-23T16:23:44.052Z,7.60
2022-12-23T16:26:10.762Z,7.60
2022-12-23T16:28:40.134Z,7.60
2022-12-23T16:31:07.340Z,7.50
2022-12-23T16:33:33.867Z,7.50
2022-12-23T16:36:19.341Z,7.50
2022-12-23T16:38:46.412Z,7.50
2022-12-23T16:41:13.179Z,7.50
2022-12-23T16:43:46.043Z,7.50
2022-12-23T16:46:18.933Z,7.40
2022-12-23T16:48:56.178Z,7.40
2022-12-23T16:51:23.551Z,7.40
2022-12-23T16:53:51.142Z,7.30
2022-12-23T16:56:18.886Z,7.30
2022-12-23T16:58:45.604Z,7.30
2022-12-23T17:01:26.216Z,7.30
2022-12-23T17:03:53.289Z,7.20
2022-12-23T17:06:20.315Z,7.20
2022-12-23T17:08:46.883Z,7.20
2022-12-23T17:11:14.953Z,7.30
2022-12-23T17:13:41.907Z,7.20
2022-12-23T17:16:26.652Z,7.20
2022-12-23T17:18:53.630Z,7.20
2022-12-23T17:21:24.809Z,7.20
2022-12-23T17:23:52.548Z,7.10
2022-12-23T17:26:19.525Z,7.10
2022-12-23T17:28:46.052Z,7.10
2022-12-23T17:31:15.473Z,7.10
2022-12-23T17:33:43.645Z,7.10
2022-12-23T17:36:11.692Z,7.00
2022-12-23T17:38:38.304Z,7.10
2022-12-23T17:41:04.894Z,7.10
2022-12-23T17:43:31.547Z,7.10
2022-12-23T17:45:58.233Z,7.10
2022-12-23T17:48:31.061Z,7.10
2022-12-23T17:50:58.223Z,7.10
2022-12-23T17:53:24.739Z,7.00
2022-12-23T17:55:51.283Z,7.00
2022-12-23T17:58:17.860Z,7.00
2022-12-23T18:00:44.437Z,7.00
2022-12-23T18:03:21.067Z,7.00
2022-12-23T18:05:48.142Z,7.00
2022-12-23T18:08:14.771Z,7.00
2022-12-23T18:10:41.295Z,7.00
2022-12-23T18:13:09.574Z,7.00
2022-12-23T18:15:40.331Z,7.00
2022-12-23T18:18:16.834Z,7.00
2022-12-23T18:20:47.848Z,6.90
2022-12-23T18:23:15.786Z,7.00
2022-12-23T18:25:42.442Z,7.00
2022-12-23T18:28:09.831Z,6.90
2022-12-23T18:30:36.508Z,6.90
2022-12-23T18:33:03.002Z,6.90
2022-12-23T18:35:33.833Z,6.90
2022-12-23T18:38:00.346Z,6.90
2022-12-23T18:40:32.549Z,6.90
2022-12-23T18:42:59.670Z,6.90
2022-12-23T18:45:28.651Z,6.90
2022-12-23T18:47:55.534Z,6.90
2022-12-23T18:50:22.127Z,6.90
2022-12-23T18:52:48.730Z,6.90
2022-12-23T18:55:15.636Z,6.90
2022-12-23T18:57:42.386Z,6.90
2022-12-23T19:00:13.731Z,6.90
2022-12-23T19:02:40.406Z,6.90
2022-12-23T19:05:07.471Z,6.90
2022-12-23T19:07:34.144Z,6.90
2022-12-23T19:10:00.786Z,6.90
2022-12-23T19:12:27.312Z,6.90
2022-12-23T19:14:53.833Z,6.90
2022-12-23T19:17:20.745Z,6.90
2022-12-23T19:19:47.233Z,6.90
2022-12-23T19:22:13.736Z,6.90
2022-12-23T19:24:58.244Z,6.90
2022-12-23T19:27:26.888Z,6.90
2022-12-23T19:29:53.394Z,6.90
2022-12-23T19:32:20.029Z,6.90
2022-12-23T19:34:46.721Z,6.90
2022-12-23T19:37:13.257Z,6.90
2022-12-23T19:39:41.274Z,7.00
2022-12-23T19:42:08.778Z,7.00
2022-12-23T19:44:35.359Z,7.00
2022-12-23T19:47:03.237Z,7.00
2022-12-23T19:49:29.736Z,7.00
2022-12-23T19:51:56.286Z,7.00
2022-12-23T19:54:22.937Z,7.00
2022-12-23T19:56:50.201Z,7.00
2022-12-23T19:59:16.834Z,7.00
2022-12-23T20:01:43.453Z,7.00
2022-12-23T20:04:10.095Z,7.00
2022-12-23T20:06:39.581Z,7.10
2022-12-23T20:09:06.890Z,7.10
2022-12-23T20:11:35.213Z,7.10
2022-12-23T20:14:02.277Z,7.10
2022-12-23T20:16:29.347Z,7.10
2022-12-23T20:18:56.283Z,7.10
2022-12-23T20:21:23.290Z,7.10
2022-12-23T20:23:49.942Z,7.10
2022-12-23T20:26:17.785Z,7.10
2022-12-23T20:28:44.358Z,7.10
2022-12-23T20:31:16.933Z,7.20
2022-12-23T20:33:43.562Z,7.20
2022-12-23T20:36:11.175Z,7.20
2022-12-23T20:38:38.955Z,7.30
2022-12-23T20:41:06.061Z,7.30
2022-12-23T20:43:35.899Z,7.30
2022-12-23T20:46:02.959Z,7.40
2022-12-23T20:48:33.757Z,7.50
2022-12-23T20:51:08.495Z,7.50
2022-12-23T20:53:35.039Z,7.60
2022-12-23T20:56:09.283Z,7.60
2022-12-23T20:58:54.638Z,7.80
2022-12-23T21:01:39.857Z,8.00
2022-12-23T21:04:07.965Z,8.30
2022-12-23T21:06:35.144Z,8.60
2022-12-23T21:09:04.123Z,8.70
2022-12-23T21:11:31.744Z,8.70
2022-12-23T21:14:06.257Z,8.70
2022-12-23T21:16:34.720Z,8.80
2022-12-23T21:19:01.418Z,8.80
2022-12-23T21:21:28.802Z,8.80
2022-12-23T21:23:56.613Z,8.90
2022-12-23T21:26:24.285Z,8.90
2022-12-23T21:28:51.509Z,8.90
2022-12-23T21:31:19.908Z,8.90
2022-12-23T21:33:46.924Z,8.90
2022-12-23T21:36:19.713Z,8.90
2022-12-23T21:38:47.829Z,8.80
2022-12-23T21:41:16.899Z,8.80
2022-12-23T21:43:43.420Z,8.80
2022-12-23T21:46:14.116Z,8.90
2022-12-23T21:48:41.062Z,8.90
2022-12-23T21:51:10.053Z,8.90
2022-12-23T21:53:36.944Z,9.00
2022-12-23T21:56:04.425Z,9.10
2022-12-23T21:58:31.009Z,9.00
2022-12-23T22:00:58.008Z,8.90
2022-12-23T22:03:25.043Z,8.90
2022-12-23T22:05:51.653Z,9.00
2022-12-23T22:08:18.658Z,9.00
2022-12-23T22:10:45.720Z,9.00
2022-12-23T22:13:12.310Z,8.90
2022-12-23T22:15:42.876Z,8.90
2022-12-23T22:18:13.346Z,8.90
2022-12-23T22:20:45.979Z,8.80
2022-12-23T22:23:13.094Z,8.80
2022-12-23T22:25:39.699Z,8.80
2022-12-23T22:28:06.252Z,8.70
2022-12-23T22:30:32.853Z,8.70
2022-12-23T22:32:59.371Z,8.80
2022-12-23T22:35:27.908Z,8.80
2022-12-23T22:37:54.475Z,8.70
2022-12-23T22:40:21.136Z,8.80
2022-12-23T22:42:47.644Z,8.80
2022-12-23T22:45:14.181Z,8.90
2022-12-23T22:47:40.915Z,8.90
2022-12-23T22:50:08.039Z,8.90
2022-12-23T22:52:35.025Z,9.00
2022-12-23T22:55:01.827Z,9.00
2022-12-23T22:57:28.375Z,9.10
2022-12-23T22:59:55.449Z,9.20
2022-12-23T23:02:22.074Z,9.20
2022-12-23T23:04:48.951Z,9.30
2022-12-23T23:07:15.444Z,9.30
2022-12-23T23:09:42.252Z,9.40
2022-12-23T23:12:08.905Z,9.50
2022-12-23T23:14:52.479Z,9.50
2022-12-23T23:17:20.420Z,9.60
2022-12-23T23:19:47.066Z,9.70
2022-12-23T23:22:13.626Z,9.60
2022-12-23T23:24:40.232Z,9.60
2022-12-23T23:27:06.903Z,9.60
2022-12-23T23:29:33.612Z,9.50
2022-12-23T23:32:00.425Z,9.50
2022-12-23T23:34:27.260Z,9.60
2022-12-23T23:36:53.916Z,9.50
2022-12-23T23:39:20.549Z,9.50
2022-12-23T23:41:47.101Z,9.60
2022-12-23T23:44:13.645Z,9.60
2022-12-23T23:46:40.186Z,9.60
2022-12-23T23:49:06.690Z,9.60
2022-12-23T23:51:33.322Z,9.50
2022-12-23T23:53:59.941Z,9.40
2022-12-23T23:56:28.829Z,9.30
2022-12-23T23:58:58.996Z,9.20
